AEE218 LGTS-LDZA
Flight info
| Callsign | AEE218 |
|---|---|
| Flight time | 1h 25m |
| Altitude | 34000 |
| Route | FSK UL608 DISOR DCT LONTA UL608 DOLEV DCT TIVNU DCT TEBLI |
| Aircraft | A320/M-SDE3FGHIRWY/LB1 |
Departure
| Time | 2026-05-07 18:13 |
|---|---|
| Airport | Thessaloniki Macedonia International Airport (LGTS) |
Arrival
| Time | 2026-05-07 19:39 |
|---|---|
| Airport | Zagreb Franjo Tuđman International Airport (LDZA) |
| Time | Latitude | Longitude | Altitude | Speed | Heading |
|---|---|---|---|---|---|
| 2026-05-07 17:56 | 40.52322 | 22.97575 | 28 ft | 0 kts | 45° |
| 2026-05-07 18:06 | 40.52310 | 22.97558 | 28 ft | 4 kts | 51° |
| 2026-05-07 18:06 | 40.52295 | 22.97529 | 28 ft | 4 kts | 71° |
| 2026-05-07 18:06 | 40.52293 | 22.97497 | 28 ft | 4 kts | 121° |
| 2026-05-07 18:07 | 40.52300 | 22.97486 | 28 ft | 1 kts | 135° |
| 2026-05-07 18:07 | 40.52300 | 22.97485 | 28 ft | 0 kts | 135° |
| 2026-05-07 18:09 | 40.52283 | 22.97478 | 28 ft | 4 kts | 236° |
| 2026-05-07 18:10 | 40.52312 | 22.97386 | 28 ft | 18 kts | 304° |
| 2026-05-07 18:10 | 40.52402 | 22.97261 | 28 ft | 17 kts | 320° |
| 2026-05-07 18:10 | 40.52521 | 22.97208 | 28 ft | 19 kts | 342° |
| 2026-05-07 18:10 | 40.52572 | 22.97116 | 29 ft | 13 kts | 280° |
| 2026-05-07 18:11 | 40.52664 | 22.97058 | 29 ft | 19 kts | 345° |
| 2026-05-07 18:11 | 40.52754 | 22.97030 | 29 ft | 21 kts | 348° |
| 2026-05-07 18:11 | 40.52915 | 22.96980 | 29 ft | 15 kts | 346° |
| 2026-05-07 18:11 | 40.53016 | 22.96948 | 29 ft | 9 kts | 346° |
| 2026-05-07 18:12 | 40.53067 | 22.96902 | 28 ft | 10 kts | 291° |
| 2026-05-07 18:12 | 40.53026 | 22.96806 | 28 ft | 18 kts | 219° |
| 2026-05-07 18:12 | 40.52951 | 22.96789 | 29 ft | 0 kts | 167° |
| 2026-05-07 18:12 | 40.52945 | 22.96791 | 29 ft | 5 kts | 167° |
| 2026-05-07 18:13 | 40.52669 | 22.96876 | 29 ft | 77 kts | 166° |
| 2026-05-07 18:13 | 40.51954 | 22.97103 | 27 ft | 131 kts | 167° |
| 2026-05-07 18:13 | 40.50962 | 22.97419 | 274 ft | 148 kts | 166° |
| 2026-05-07 18:13 | 40.49984 | 22.97693 | 896 ft | 143 kts | 168° |
| 2026-05-07 18:14 | 40.49004 | 22.97954 | 1438 ft | 144 kts | 168° |
| 2026-05-07 18:14 | 40.48013 | 22.98222 | 1882 ft | 152 kts | 168° |
| 2026-05-07 18:14 | 40.46903 | 22.98527 | 2082 ft | 174 kts | 168° |
| 2026-05-07 18:14 | 40.45640 | 22.98873 | 2311 ft | 197 kts | 168° |
| 2026-05-07 18:15 | 40.44223 | 22.99060 | 2571 ft | 217 kts | 188° |
| 2026-05-07 18:15 | 40.42724 | 22.98375 | 2872 ft | 243 kts | 213° |
| 2026-05-07 18:15 | 40.41583 | 22.96662 | 3472 ft | 259 kts | 246° |
| 2026-05-07 18:15 | 40.41343 | 22.94320 | 4332 ft | 266 kts | 279° |
| 2026-05-07 18:16 | 40.42170 | 22.92149 | 5232 ft | 274 kts | 313° |
| 2026-05-07 18:16 | 40.43826 | 22.90913 | 6120 ft | 282 kts | 346° |
| 2026-05-07 18:16 | 40.45786 | 22.91053 | 6959 ft | 290 kts | 19° |
| 2026-05-07 18:16 | 40.47481 | 22.92504 | 7753 ft | 297 kts | 44° |
| 2026-05-07 18:17 | 40.48952 | 22.94428 | 8539 ft | 300 kts | 35° |
| 2026-05-07 18:17 | 40.50850 | 22.95497 | 9275 ft | 299 kts | 5° |
| 2026-05-07 18:17 | 40.52924 | 22.95697 | 10076 ft | 300 kts | 359° |
| 2026-05-07 18:17 | 40.55055 | 22.95822 | 10498 ft | 317 kts | 358° |
| 2026-05-07 18:18 | 40.57342 | 22.95933 | 10687 ft | 340 kts | 359° |
| 2026-05-07 18:18 | 40.59770 | 22.96054 | 11039 ft | 355 kts | 359° |
| 2026-05-07 18:18 | 40.62253 | 22.96190 | 11686 ft | 359 kts | 359° |
| 2026-05-07 18:18 | 40.64758 | 22.96341 | 12400 ft | 362 kts | 359° |
| 2026-05-07 18:19 | 40.67279 | 22.96501 | 13135 ft | 364 kts | 359° |
| 2026-05-07 18:19 | 40.69811 | 22.96660 | 13866 ft | 365 kts | 359° |
| 2026-05-07 18:19 | 40.72326 | 22.96814 | 14493 ft | 367 kts | 359° |
| 2026-05-07 18:19 | 40.74887 | 22.96970 | 15071 ft | 370 kts | 359° |
| 2026-05-07 18:20 | 40.77472 | 22.97133 | 15640 ft | 373 kts | 359° |
| 2026-05-07 18:20 | 40.80079 | 22.97299 | 16199 ft | 376 kts | 359° |
| 2026-05-07 18:20 | 40.82700 | 22.97460 | 16762 ft | 379 kts | 359° |
| 2026-05-07 18:20 | 40.85344 | 22.97619 | 17325 ft | 382 kts | 359° |
| 2026-05-07 18:21 | 40.88012 | 22.97782 | 17898 ft | 385 kts | 359° |
| 2026-05-07 18:21 | 40.90701 | 22.97950 | 18479 ft | 388 kts | 359° |
| 2026-05-07 18:21 | 40.93411 | 22.98122 | 18992 ft | 391 kts | 359° |
| 2026-05-07 18:21 | 40.96140 | 22.98294 | 19496 ft | 394 kts | 359° |
| 2026-05-07 18:22 | 40.98857 | 22.98462 | 19993 ft | 397 kts | 359° |
| 2026-05-07 18:22 | 40.99792 | 22.98519 | 20166 ft | 398 kts | 359° |
| 2026-05-07 18:22 | 41.04420 | 22.98715 | 20970 ft | 401 kts | 353° |
| 2026-05-07 18:22 | 41.07167 | 22.98160 | 21445 ft | 399 kts | 341° |
| 2026-05-07 18:23 | 41.09759 | 22.96894 | 21883 ft | 397 kts | 330° |
| 2026-05-07 18:23 | 41.11350 | 22.95694 | 22169 ft | 397 kts | 323° |
| 2026-05-07 18:23 | 41.13495 | 22.93392 | 22601 ft | 396 kts | 313° |
| 2026-05-07 18:23 | 41.15314 | 22.90639 | 23045 ft | 398 kts | 308° |
| 2026-05-07 18:24 | 41.17102 | 22.87816 | 23485 ft | 401 kts | 308° |
| 2026-05-07 18:24 | 41.18904 | 22.84980 | 23872 ft | 404 kts | 308° |
| 2026-05-07 18:24 | 41.20724 | 22.82121 | 24268 ft | 406 kts | 308° |
| 2026-05-07 18:24 | 41.22548 | 22.79258 | 24672 ft | 407 kts | 308° |
| 2026-05-07 18:25 | 41.24380 | 22.76380 | 25073 ft | 408 kts | 308° |
| 2026-05-07 18:25 | 41.26231 | 22.73519 | 25484 ft | 409 kts | 309° |
| 2026-05-07 18:25 | 41.28130 | 22.70703 | 25872 ft | 410 kts | 310° |
| 2026-05-07 18:25 | 41.30062 | 22.67908 | 26278 ft | 411 kts | 310° |
| 2026-05-07 18:26 | 41.32009 | 22.65115 | 26678 ft | 412 kts | 310° |
| 2026-05-07 18:26 | 41.33960 | 22.62311 | 27081 ft | 413 kts | 310° |
| 2026-05-07 18:26 | 41.35883 | 22.59530 | 27486 ft | 415 kts | 310° |
| 2026-05-07 18:26 | 41.37835 | 22.56683 | 27822 ft | 417 kts | 310° |
| 2026-05-07 18:27 | 41.39792 | 22.53809 | 28180 ft | 419 kts | 310° |
| 2026-05-07 18:27 | 41.41748 | 22.50926 | 28541 ft | 420 kts | 310° |
| 2026-05-07 18:27 | 41.43711 | 22.48029 | 28915 ft | 421 kts | 310° |
| 2026-05-07 18:27 | 41.45669 | 22.45142 | 29415 ft | 419 kts | 310° |
| 2026-05-07 18:28 | 41.47617 | 22.42272 | 30026 ft | 416 kts | 310° |
| 2026-05-07 18:28 | 41.49548 | 22.39423 | 30552 ft | 412 kts | 310° |
| 2026-05-07 18:28 | 41.51462 | 22.36594 | 31092 ft | 408 kts | 309° |
| 2026-05-07 18:28 | 41.53352 | 22.33802 | 31665 ft | 403 kts | 309° |
| 2026-05-07 18:29 | 41.55215 | 22.31045 | 32259 ft | 397 kts | 309° |
| 2026-05-07 18:29 | 41.57050 | 22.28323 | 32888 ft | 391 kts | 309° |
| 2026-05-07 18:29 | 41.58834 | 22.25677 | 33508 ft | 385 kts | 308° |
| 2026-05-07 18:29 | 41.60618 | 22.23032 | 33986 ft | 381 kts | 308° |
| 2026-05-07 18:30 | 41.62385 | 22.20410 | 34085 ft | 379 kts | 308° |
| 2026-05-07 18:30 | 41.65958 | 22.15090 | 34104 ft | 392 kts | 309° |
| 2026-05-07 18:31 | 41.69624 | 22.09619 | 34106 ft | 394 kts | 308° |
| 2026-05-07 18:31 | 41.73275 | 22.04173 | 34097 ft | 393 kts | 308° |
| 2026-05-07 18:32 | 41.76917 | 21.98726 | 34107 ft | 392 kts | 308° |
| 2026-05-07 18:32 | 41.80553 | 21.93282 | 34100 ft | 392 kts | 308° |
| 2026-05-07 18:33 | 41.84190 | 21.87827 | 34107 ft | 392 kts | 308° |
| 2026-05-07 18:33 | 41.87824 | 21.82366 | 34113 ft | 392 kts | 308° |
| 2026-05-07 18:34 | 41.91431 | 21.76929 | 34121 ft | 392 kts | 308° |
| 2026-05-07 18:34 | 41.95056 | 21.71442 | 34130 ft | 394 kts | 307° |
| 2026-05-07 18:35 | 41.98709 | 21.65922 | 34095 ft | 396 kts | 308° |
| 2026-05-07 18:35 | 42.02388 | 21.60379 | 34094 ft | 397 kts | 308° |
| 2026-05-07 18:36 | 42.06064 | 21.54806 | 34091 ft | 398 kts | 308° |
| 2026-05-07 18:36 | 42.09733 | 21.49216 | 34095 ft | 399 kts | 308° |
| 2026-05-07 18:37 | 42.13405 | 21.43612 | 34095 ft | 399 kts | 308° |
| 2026-05-07 18:37 | 42.17049 | 21.38027 | 34110 ft | 399 kts | 307° |
| 2026-05-07 18:38 | 42.20652 | 21.32344 | 34132 ft | 399 kts | 307° |
| 2026-05-07 18:38 | 42.24238 | 21.26596 | 34097 ft | 401 kts | 307° |
| 2026-05-07 18:39 | 42.27847 | 21.20829 | 34085 ft | 403 kts | 307° |
| 2026-05-07 18:39 | 42.31481 | 21.15062 | 34091 ft | 404 kts | 307° |
| 2026-05-07 18:40 | 42.35094 | 21.09312 | 34108 ft | 404 kts | 307° |
| 2026-05-07 18:40 | 42.38724 | 21.03507 | 34115 ft | 404 kts | 307° |
| 2026-05-07 18:41 | 42.42347 | 20.97705 | 34122 ft | 403 kts | 307° |
| 2026-05-07 18:41 | 42.45960 | 20.91901 | 34123 ft | 403 kts | 306° |
| 2026-05-07 18:42 | 42.49573 | 20.86087 | 34121 ft | 404 kts | 306° |
| 2026-05-07 18:42 | 42.53197 | 20.80254 | 34120 ft | 405 kts | 306° |
| 2026-05-07 18:43 | 42.56824 | 20.74399 | 34108 ft | 406 kts | 306° |
| 2026-05-07 18:43 | 42.60431 | 20.68563 | 34106 ft | 407 kts | 306° |
| 2026-05-07 18:44 | 42.64067 | 20.62674 | 34104 ft | 407 kts | 306° |
| 2026-05-07 18:44 | 42.67704 | 20.56773 | 34100 ft | 407 kts | 306° |
| 2026-05-07 18:45 | 42.71336 | 20.50861 | 34110 ft | 407 kts | 306° |
| 2026-05-07 18:45 | 42.74964 | 20.44942 | 34129 ft | 407 kts | 306° |
| 2026-05-07 18:46 | 42.78589 | 20.39010 | 34116 ft | 408 kts | 306° |
| 2026-05-07 18:46 | 42.82225 | 20.33064 | 34097 ft | 409 kts | 306° |
| 2026-05-07 18:47 | 42.85939 | 20.27208 | 34098 ft | 412 kts | 308° |
| 2026-05-07 18:47 | 42.89905 | 20.21548 | 34099 ft | 413 kts | 310° |
| 2026-05-07 18:48 | 42.93912 | 20.15923 | 34103 ft | 413 kts | 309° |
| 2026-05-07 18:48 | 42.97871 | 20.10235 | 34128 ft | 412 kts | 308° |
| 2026-05-07 18:49 | 43.01775 | 20.04523 | 34123 ft | 411 kts | 308° |
| 2026-05-07 18:49 | 43.05671 | 19.98823 | 34123 ft | 410 kts | 308° |
| 2026-05-07 18:50 | 43.09564 | 19.93140 | 34119 ft | 409 kts | 308° |
| 2026-05-07 18:50 | 43.13452 | 19.87460 | 34115 ft | 408 kts | 308° |
| 2026-05-07 18:51 | 43.17329 | 19.81774 | 34115 ft | 408 kts | 308° |
| 2026-05-07 18:51 | 43.21200 | 19.76088 | 34128 ft | 408 kts | 308° |
| 2026-05-07 18:52 | 43.25071 | 19.70400 | 34114 ft | 408 kts | 308° |
| 2026-05-07 18:52 | 43.28935 | 19.64699 | 34106 ft | 409 kts | 308° |
| 2026-05-07 18:53 | 43.32820 | 19.58958 | 34078 ft | 411 kts | 308° |
| 2026-05-07 18:53 | 43.36695 | 19.53227 | 34073 ft | 413 kts | 308° |
| 2026-05-07 18:54 | 43.40604 | 19.47429 | 34096 ft | 414 kts | 308° |
| 2026-05-07 18:54 | 43.44514 | 19.41617 | 34093 ft | 414 kts | 308° |
| 2026-05-07 18:55 | 43.48423 | 19.35794 | 34092 ft | 414 kts | 308° |
| 2026-05-07 18:55 | 43.52336 | 19.29953 | 34083 ft | 414 kts | 308° |
| 2026-05-07 18:56 | 43.56243 | 19.24101 | 34095 ft | 415 kts | 308° |
| 2026-05-07 18:56 | 43.60160 | 19.18228 | 34078 ft | 416 kts | 308° |
| 2026-05-07 18:57 | 43.64090 | 19.12339 | 34081 ft | 417 kts | 308° |
| 2026-05-07 18:57 | 43.68021 | 19.06432 | 34082 ft | 418 kts | 308° |
| 2026-05-07 18:58 | 43.71916 | 19.00548 | 34083 ft | 418 kts | 308° |
| 2026-05-07 18:58 | 43.75838 | 18.94616 | 34105 ft | 418 kts | 307° |
| 2026-05-07 18:59 | 43.79766 | 18.88674 | 34097 ft | 418 kts | 307° |
| 2026-05-07 18:59 | 43.83694 | 18.82722 | 34079 ft | 419 kts | 307° |
| 2026-05-07 19:00 | 43.87628 | 18.76739 | 34078 ft | 420 kts | 307° |
| 2026-05-07 19:00 | 43.91533 | 18.70776 | 34103 ft | 420 kts | 307° |
| 2026-05-07 19:01 | 43.95468 | 18.64760 | 34100 ft | 421 kts | 307° |
| 2026-05-07 19:01 | 43.99404 | 18.58740 | 34097 ft | 421 kts | 307° |
| 2026-05-07 19:02 | 44.03343 | 18.52705 | 34091 ft | 421 kts | 307° |
| 2026-05-07 19:02 | 44.07273 | 18.46662 | 34098 ft | 421 kts | 307° |
| 2026-05-07 19:03 | 44.11210 | 18.40612 | 34093 ft | 422 kts | 307° |
| 2026-05-07 19:03 | 44.15149 | 18.34539 | 34082 ft | 422 kts | 307° |
| 2026-05-07 19:04 | 44.19078 | 18.28450 | 34077 ft | 423 kts | 307° |
| 2026-05-07 19:04 | 44.22985 | 18.22403 | 34070 ft | 423 kts | 307° |
| 2026-05-07 19:05 | 44.26909 | 18.16301 | 34096 ft | 423 kts | 306° |
| 2026-05-07 19:05 | 44.30826 | 18.10189 | 34076 ft | 422 kts | 306° |
| 2026-05-07 19:06 | 44.34736 | 18.04086 | 34092 ft | 421 kts | 306° |
| 2026-05-07 19:06 | 44.40593 | 17.94927 | 34078 ft | 421 kts | 306° |
| 2026-05-07 19:07 | 44.44495 | 17.88809 | 34094 ft | 421 kts | 306° |
| 2026-05-07 19:07 | 44.48387 | 17.82687 | 34090 ft | 421 kts | 306° |
| 2026-05-07 19:08 | 44.52267 | 17.76560 | 34080 ft | 420 kts | 306° |
| 2026-05-07 19:08 | 44.56112 | 17.70484 | 34078 ft | 419 kts | 306° |
| 2026-05-07 19:09 | 44.59981 | 17.64375 | 34085 ft | 419 kts | 306° |
| 2026-05-07 19:09 | 44.63845 | 17.58246 | 34090 ft | 419 kts | 306° |
| 2026-05-07 19:10 | 44.67707 | 17.52097 | 34077 ft | 420 kts | 306° |
| 2026-05-07 19:10 | 44.71564 | 17.45944 | 34073 ft | 420 kts | 306° |
| 2026-05-07 19:11 | 44.75430 | 17.39777 | 34066 ft | 420 kts | 306° |
| 2026-05-07 19:11 | 44.79297 | 17.33602 | 34067 ft | 420 kts | 306° |
| 2026-05-07 19:12 | 44.83155 | 17.27413 | 34088 ft | 420 kts | 305° |
| 2026-05-07 19:12 | 44.87015 | 17.21212 | 34079 ft | 421 kts | 305° |
| 2026-05-07 19:13 | 44.90873 | 17.15000 | 34071 ft | 421 kts | 305° |
| 2026-05-07 19:13 | 44.94725 | 17.08766 | 34065 ft | 421 kts | 305° |
| 2026-05-07 19:14 | 44.98563 | 17.02564 | 33849 ft | 422 kts | 305° |
| 2026-05-07 19:14 | 45.00501 | 16.99448 | 33390 ft | 423 kts | 305° |
| 2026-05-07 19:14 | 45.02441 | 16.96325 | 32461 ft | 420 kts | 306° |
| 2026-05-07 19:15 | 45.04365 | 16.93227 | 31565 ft | 421 kts | 306° |
| 2026-05-07 19:15 | 45.06303 | 16.90094 | 30713 ft | 425 kts | 306° |
| 2026-05-07 19:15 | 45.08256 | 16.86927 | 29699 ft | 430 kts | 306° |
| 2026-05-07 19:15 | 45.10229 | 16.83725 | 28960 ft | 427 kts | 306° |
| 2026-05-07 19:16 | 45.12166 | 16.80588 | 28412 ft | 421 kts | 306° |
| 2026-05-07 19:16 | 45.14059 | 16.77518 | 27780 ft | 417 kts | 306° |
| 2026-05-07 19:16 | 45.15955 | 16.74441 | 27192 ft | 413 kts | 306° |
| 2026-05-07 19:16 | 45.17837 | 16.71382 | 26556 ft | 410 kts | 305° |
| 2026-05-07 19:17 | 45.19699 | 16.68349 | 25954 ft | 406 kts | 305° |
| 2026-05-07 19:17 | 45.21571 | 16.65360 | 25353 ft | 404 kts | 307° |
| 2026-05-07 19:17 | 45.23481 | 16.62453 | 24758 ft | 402 kts | 308° |
| 2026-05-07 19:17 | 45.25409 | 16.59599 | 24168 ft | 399 kts | 308° |
| 2026-05-07 19:18 | 45.27338 | 16.56775 | 23567 ft | 397 kts | 308° |
| 2026-05-07 19:18 | 45.29256 | 16.53966 | 22935 ft | 394 kts | 308° |
| 2026-05-07 19:18 | 45.31149 | 16.51176 | 22376 ft | 390 kts | 308° |
| 2026-05-07 19:18 | 45.33013 | 16.48409 | 21839 ft | 386 kts | 308° |
| 2026-05-07 19:19 | 45.34232 | 16.46585 | 21488 ft | 383 kts | 308° |
| 2026-05-07 19:19 | 45.36647 | 16.42949 | 20810 ft | 379 kts | 308° |
| 2026-05-07 19:19 | 45.38451 | 16.40228 | 20441 ft | 373 kts | 308° |
| 2026-05-07 19:19 | 45.40196 | 16.37602 | 20309 ft | 357 kts | 308° |
| 2026-05-07 19:20 | 45.41846 | 16.35130 | 20175 ft | 332 kts | 308° |
| 2026-05-07 19:20 | 45.42877 | 16.33591 | 20094 ft | 317 kts | 308° |
| 2026-05-07 19:20 | 45.44356 | 16.31376 | 19817 ft | 303 kts | 307° |
| 2026-05-07 19:20 | 45.45785 | 16.29214 | 19414 ft | 297 kts | 307° |
| 2026-05-07 19:21 | 45.47187 | 16.27078 | 19170 ft | 294 kts | 307° |
| 2026-05-07 19:21 | 45.48582 | 16.24952 | 18931 ft | 293 kts | 308° |
| 2026-05-07 19:21 | 45.49971 | 16.22836 | 18690 ft | 292 kts | 308° |
| 2026-05-07 19:21 | 45.51359 | 16.20724 | 18459 ft | 291 kts | 308° |
| 2026-05-07 19:22 | 45.52744 | 16.18619 | 18211 ft | 291 kts | 308° |
| 2026-05-07 19:22 | 45.54127 | 16.16521 | 17954 ft | 290 kts | 309° |
| 2026-05-07 19:22 | 45.55507 | 16.14430 | 17567 ft | 290 kts | 309° |
| 2026-05-07 19:22 | 45.57007 | 16.12480 | 17189 ft | 295 kts | 324° |
| 2026-05-07 19:23 | 45.58969 | 16.11501 | 16731 ft | 309 kts | 353° |
| 2026-05-07 19:23 | 45.61083 | 16.11969 | 16508 ft | 313 kts | 20° |
| 2026-05-07 19:23 | 45.62859 | 16.13760 | 16185 ft | 317 kts | 44° |
| 2026-05-07 19:23 | 45.64385 | 16.16040 | 15831 ft | 317 kts | 45° |
| 2026-05-07 19:24 | 45.65891 | 16.18347 | 15519 ft | 316 kts | 45° |
| 2026-05-07 19:24 | 45.67389 | 16.20653 | 15223 ft | 314 kts | 45° |
| 2026-05-07 19:24 | 45.68873 | 16.22939 | 14918 ft | 313 kts | 45° |
| 2026-05-07 19:24 | 45.70350 | 16.25213 | 14648 ft | 311 kts | 45° |
| 2026-05-07 19:25 | 45.71819 | 16.27474 | 14363 ft | 309 kts | 45° |
| 2026-05-07 19:25 | 45.73264 | 16.29692 | 14070 ft | 308 kts | 45° |
| 2026-05-07 19:25 | 45.74722 | 16.31921 | 13788 ft | 306 kts | 44° |
| 2026-05-07 19:25 | 45.76175 | 16.34138 | 13476 ft | 304 kts | 45° |
| 2026-05-07 19:26 | 45.77619 | 16.36346 | 13163 ft | 303 kts | 45° |
| 2026-05-07 19:26 | 45.79053 | 16.38541 | 12865 ft | 301 kts | 45° |
| 2026-05-07 19:26 | 45.80479 | 16.40728 | 12565 ft | 299 kts | 45° |
| 2026-05-07 19:26 | 45.81896 | 16.42904 | 12270 ft | 298 kts | 45° |
| 2026-05-07 19:27 | 45.83309 | 16.45077 | 11974 ft | 296 kts | 45° |
| 2026-05-07 19:27 | 45.84709 | 16.47230 | 11677 ft | 294 kts | 44° |
| 2026-05-07 19:27 | 45.86347 | 16.48887 | 11385 ft | 286 kts | 16° |
| 2026-05-07 19:27 | 45.88272 | 16.49167 | 11095 ft | 276 kts | 345° |
| 2026-05-07 19:28 | 45.89979 | 16.48088 | 10781 ft | 267 kts | 317° |
| 2026-05-07 19:28 | 45.91348 | 16.46311 | 10442 ft | 266 kts | 314° |
| 2026-05-07 19:28 | 45.92701 | 16.44495 | 10147 ft | 266 kts | 314° |
| 2026-05-07 19:28 | 45.94015 | 16.42633 | 9841 ft | 264 kts | 304° |
| 2026-05-07 19:29 | 45.94691 | 16.40269 | 9531 ft | 256 kts | 274° |
| 2026-05-07 19:29 | 45.94367 | 16.37739 | 8824 ft | 268 kts | 241° |
| 2026-05-07 19:29 | 45.93165 | 16.35598 | 8085 ft | 283 kts | 228° |
| 2026-05-07 19:29 | 45.91806 | 16.33520 | 7317 ft | 286 kts | 227° |
| 2026-05-07 19:30 | 45.90430 | 16.31449 | 6616 ft | 285 kts | 227° |
| 2026-05-07 19:30 | 45.89090 | 16.29433 | 5997 ft | 280 kts | 227° |
| 2026-05-07 19:30 | 45.87740 | 16.27394 | 5108 ft | 284 kts | 228° |
| 2026-05-07 19:30 | 45.86375 | 16.25319 | 4210 ft | 287 kts | 228° |
| 2026-05-07 19:31 | 45.85020 | 16.23252 | 3681 ft | 277 kts | 228° |
| 2026-05-07 19:31 | 45.83753 | 16.21319 | 3536 ft | 254 kts | 228° |
| 2026-05-07 19:31 | 45.82601 | 16.19559 | 3497 ft | 227 kts | 228° |
| 2026-05-07 19:31 | 45.81582 | 16.18008 | 3509 ft | 207 kts | 225° |
| 2026-05-07 19:32 | 45.80338 | 16.17025 | 3509 ft | 206 kts | 192° |
| 2026-05-07 19:32 | 45.78953 | 16.17292 | 3506 ft | 205 kts | 155° |
| 2026-05-07 19:32 | 45.77939 | 16.18719 | 3511 ft | 210 kts | 118° |
| 2026-05-07 19:32 | 45.77656 | 16.20772 | 3510 ft | 213 kts | 86° |
| 2026-05-07 19:33 | 45.78145 | 16.22745 | 3512 ft | 213 kts | 56° |
| 2026-05-07 19:33 | 45.79042 | 16.24432 | 3511 ft | 213 kts | 47° |
| 2026-05-07 19:33 | 45.80025 | 16.25994 | 3399 ft | 208 kts | 45° |
| 2026-05-07 19:33 | 45.81001 | 16.27371 | 3265 ft | 187 kts | 28° |
| 2026-05-07 19:34 | 45.82156 | 16.27746 | 3127 ft | 162 kts | 342° |
| 2026-05-07 19:34 | 45.83059 | 16.27023 | 2919 ft | 143 kts | 311° |
| 2026-05-07 19:34 | 45.83732 | 16.26000 | 2546 ft | 140 kts | 305° |
| 2026-05-07 19:34 | 45.84203 | 16.24813 | 2084 ft | 137 kts | 277° |
| 2026-05-07 19:35 | 45.84306 | 16.23469 | 2017 ft | 138 kts | 269° |
| 2026-05-07 19:35 | 45.84123 | 16.22125 | 2007 ft | 139 kts | 244° |
| 2026-05-07 19:35 | 45.83553 | 16.21008 | 2008 ft | 140 kts | 226° |
| 2026-05-07 19:35 | 45.82897 | 16.20006 | 2005 ft | 139 kts | 226° |
| 2026-05-07 19:36 | 45.82234 | 16.18993 | 2008 ft | 139 kts | 227° |
| 2026-05-07 19:36 | 45.81582 | 16.17997 | 2008 ft | 136 kts | 227° |
| 2026-05-07 19:36 | 45.80933 | 16.17007 | 1945 ft | 136 kts | 227° |
| 2026-05-07 19:36 | 45.80290 | 16.16025 | 1815 ft | 135 kts | 227° |
| 2026-05-07 19:37 | 45.79651 | 16.15048 | 1657 ft | 134 kts | 227° |
| 2026-05-07 19:37 | 45.79010 | 16.14069 | 1479 ft | 135 kts | 227° |
| 2026-05-07 19:37 | 45.78365 | 16.13086 | 1306 ft | 136 kts | 227° |
| 2026-05-07 19:37 | 45.77714 | 16.12092 | 1113 ft | 138 kts | 227° |
| 2026-05-07 19:38 | 45.77053 | 16.11081 | 942 ft | 140 kts | 227° |
| 2026-05-07 19:38 | 45.76387 | 16.10060 | 805 ft | 141 kts | 227° |
| 2026-05-07 19:38 | 45.75711 | 16.09034 | 605 ft | 141 kts | 228° |
| 2026-05-07 19:38 | 45.75038 | 16.08009 | 388 ft | 141 kts | 228° |
| 2026-05-07 19:39 | 45.74440 | 16.07101 | 358 ft | 93 kts | 226° |
| 2026-05-07 19:39 | 45.74134 | 16.06642 | 360 ft | 52 kts | 227° |
| 2026-05-07 19:39 | 45.73949 | 16.06357 | 361 ft | 23 kts | 227° |
| 2026-05-07 19:39 | 45.73848 | 16.06263 | 363 ft | 14 kts | 159° |
| 2026-05-07 19:40 | 45.73813 | 16.06300 | 360 ft | 5 kts | 141° |
| 2026-05-07 19:40 | 45.73773 | 16.06347 | 359 ft | 9 kts | 141° |
| 2026-05-07 19:40 | 45.73716 | 16.06381 | 359 ft | 9 kts | 197° |
| 2026-05-07 19:40 | 45.73666 | 16.06323 | 359 ft | 8 kts | 206° |
| 2026-05-07 19:41 | 45.73614 | 16.06362 | 362 ft | 10 kts | 137° |
| 2026-05-07 19:41 | 45.73599 | 16.06383 | 362 ft | 1 kts | 137° |
| 2026-05-07 19:41 | 45.73597 | 16.06385 | 362 ft | 0 kts | 137° |